sensor_id;sensor_type;location;lat;lon;timestamp;pressure;altitude;pressure_sealevel;temperature;humidity
54882;BME280;40775;51.448;4.742;2022-08-19T00:02:12;101245.00;;;20.94;73.96
54882;BME280;40775;51.448;4.742;2022-08-19T00:04:39;101244.13;;;20.94;73.93
54882;BME280;40775;51.448;4.742;2022-08-19T00:07:07;101243.28;;;20.90;74.13
54882;BME280;40775;51.448;4.742;2022-08-19T00:09:34;101246.94;;;20.86;74.22
54882;BME280;40775;51.448;4.742;2022-08-19T00:12:02;101251.38;;;20.86;74.20
54882;BME280;40775;51.448;4.742;2022-08-19T00:14:30;101253.22;;;20.82;74.29
54882;BME280;40775;51.448;4.742;2022-08-19T00:17:02;101256.78;;;20.80;74.03
54882;BME280;40775;51.448;4.742;2022-08-19T00:19:31;101262.19;;;20.77;73.92
54882;BME280;40775;51.448;4.742;2022-08-19T00:21:58;101248.91;;;20.72;74.12
54882;BME280;40775;51.448;4.742;2022-08-19T00:24:25;101252.50;;;20.70;74.36
54882;BME280;40775;51.448;4.742;2022-08-19T00:26:56;101247.16;;;20.70;74.22
54882;BME280;40775;51.448;4.742;2022-08-19T00:29:43;101249.03;;;20.64;73.92
54882;BME280;40775;51.448;4.742;2022-08-19T00:32:11;101256.25;;;20.58;74.16
54882;BME280;40775;51.448;4.742;2022-08-19T00:34:39;101251.69;;;20.64;74.12
54882;BME280;40775;51.448;4.742;2022-08-19T00:37:06;101246.38;;;20.63;74.48
54882;BME280;40775;51.448;4.742;2022-08-19T00:39:34;101255.97;;;20.75;75.00
54882;BME280;40775;51.448;4.742;2022-08-19T00:42:01;101246.25;;;20.71;75.04
54882;BME280;40775;51.448;4.742;2022-08-19T00:44:29;101256.88;;;20.74;75.06
54882;BME280;40775;51.448;4.742;2022-08-19T00:46:58;101234.75;;;20.67;75.00
54882;BME280;40775;51.448;4.742;2022-08-19T00:49:43;101247.19;;;20.68;75.24
54882;BME280;40775;51.448;4.742;2022-08-19T00:52:21;101253.47;;;20.65;75.08
54882;BME280;40775;51.448;4.742;2022-08-19T00:54:50;101254.34;;;20.66;75.42
54882;BME280;40775;51.448;4.742;2022-08-19T00:57:32;101249.91;;;20.65;75.36
54882;BME280;40775;51.448;4.742;2022-08-19T01:00:13;101242.75;;;20.67;75.44
54882;BME280;40775;51.448;4.742;2022-08-19T01:02:42;101241.97;;;20.62;75.66
54882;BME280;40775;51.448;4.742;2022-08-19T01:05:18;101239.28;;;20.62;75.75
54882;BME280;40775;51.448;4.742;2022-08-19T01:07:48;101243.72;;;20.63;75.72
54882;BME280;40775;51.448;4.742;2022-08-19T01:10:23;101237.56;;;20.59;75.98
54882;BME280;40775;51.448;4.742;2022-08-19T01:12:52;101233.16;;;20.57;75.95
54882;BME280;40775;51.448;4.742;2022-08-19T01:15:25;101230.50;;;20.55;76.12
54882;BME280;40775;51.448;4.742;2022-08-19T01:17:55;101242.97;;;20.55;76.28
54882;BME280;40775;51.448;4.742;2022-08-19T01:20:24;101237.66;;;20.50;76.04
54882;BME280;40775;51.448;4.742;2022-08-19T01:22:57;101237.72;;;20.47;75.95
54882;BME280;40775;51.448;4.742;2022-08-19T01:25:35;101238.59;;;20.48;76.17
54882;BME280;40775;51.448;4.742;2022-08-19T01:28:05;101238.66;;;20.43;76.21
54882;BME280;40775;51.448;4.742;2022-08-19T01:30:37;101244.91;;;20.42;76.03
54882;BME280;40775;51.448;4.742;2022-08-19T01:33:04;101252.94;;;20.37;76.40
54882;BME280;40775;51.448;4.742;2022-08-19T01:35:36;101252.13;;;20.32;75.91
54882;BME280;40775;51.448;4.742;2022-08-19T01:38:07;101258.34;;;20.33;76.27
54882;BME280;40775;51.448;4.742;2022-08-19T01:40:39;101253.94;;;20.30;76.12
54882;BME280;40775;51.448;4.742;2022-08-19T01:43:08;101264.56;;;20.32;76.52
54882;BME280;40775;51.448;4.742;2022-08-19T01:45:36;101263.66;;;20.33;76.26
54882;BME280;40775;51.448;4.742;2022-08-19T01:48:06;101258.34;;;20.31;76.53
54882;BME280;40775;51.448;4.742;2022-08-19T01:50:35;101253.91;;;20.32;76.40
54882;BME280;40775;51.448;4.742;2022-08-19T01:53:06;101258.34;;;20.31;76.55
54882;BME280;40775;51.448;4.742;2022-08-19T01:55:38;101254.88;;;20.25;76.17
54882;BME280;40775;51.448;4.742;2022-08-19T01:58:20;101257.53;;;20.28;76.22
54882;BME280;40775;51.448;4.742;2022-08-19T02:00:49;101262.88;;;20.23;76.55
54882;BME280;40775;51.448;4.742;2022-08-19T02:03:16;101257.50;;;20.26;76.42
54882;BME280;40775;51.448;4.742;2022-08-19T02:05:44;101250.38;;;20.27;76.88
54882;BME280;40775;51.448;4.742;2022-08-19T02:08:12;101253.09;;;20.24;76.72
54882;BME280;40775;51.448;4.742;2022-08-19T02:10:42;101254.00;;;20.23;76.47
54882;BME280;40775;51.448;4.742;2022-08-19T02:13:11;101258.38;;;20.27;76.94
54882;BME280;40775;51.448;4.742;2022-08-19T02:15:39;101269.06;;;20.25;77.07
54882;BME280;40775;51.448;4.742;2022-08-19T02:18:07;101275.28;;;20.26;76.83
54882;BME280;40775;51.448;4.742;2022-08-19T02:20:36;101275.31;;;20.27;77.07
54882;BME280;40775;51.448;4.742;2022-08-19T02:23:05;101275.28;;;20.29;77.62
54882;BME280;40775;51.448;4.742;2022-08-19T02:25:41;101281.50;;;20.28;77.31
54882;BME280;40775;51.448;4.742;2022-08-19T02:28:08;101270.84;;;20.26;77.23
54882;BME280;40775;51.448;4.742;2022-08-19T02:30:39;101268.19;;;20.25;77.27
54882;BME280;40775;51.448;4.742;2022-08-19T02:33:07;101262.00;;;20.23;77.35
54882;BME280;40775;51.448;4.742;2022-08-19T02:35:34;101272.63;;;20.26;77.14
54882;BME280;40775;51.448;4.742;2022-08-19T02:38:03;101262.94;;;20.20;77.00
54882;BME280;40775;51.448;4.742;2022-08-19T02:40:52;101263.78;;;20.22;77.21
54882;BME280;40775;51.448;4.742;2022-08-19T02:43:20;101254.00;;;20.23;77.42
54882;BME280;40775;51.448;4.742;2022-08-19T02:45:49;101255.84;;;20.19;77.26
54882;BME280;40775;51.448;4.742;2022-08-19T02:48:19;101254.09;;;20.17;77.36
54882;BME280;40775;51.448;4.742;2022-08-19T02:50:50;101254.97;;;20.17;77.26
54882;BME280;40775;51.448;4.742;2022-08-19T02:53:25;101247.88;;;20.16;77.60
54882;BME280;40775;51.448;4.742;2022-08-19T02:55:53;101251.41;;;20.17;77.36
54882;BME280;40775;51.448;4.742;2022-08-19T02:58:21;101254.13;;;20.14;77.17
54882;BME280;40775;51.448;4.742;2022-08-19T03:00:55;101255.06;;;20.11;77.19
54882;BME280;40775;51.448;4.742;2022-08-19T03:03:22;101259.47;;;20.12;77.05
54882;BME280;40775;51.448;4.742;2022-08-19T03:05:50;101253.28;;;20.10;77.27
54882;BME280;40775;51.448;4.742;2022-08-19T03:08:23;101246.25;;;20.06;77.32
54882;BME280;40775;51.448;4.742;2022-08-19T03:10:51;101246.25;;;20.06;77.22
54882;BME280;40775;51.448;4.742;2022-08-19T03:13:19;101240.88;;;20.08;77.20
54882;BME280;40775;51.448;4.742;2022-08-19T03:15:48;101239.19;;;20.02;77.11
54882;BME280;40775;51.448;4.742;2022-08-19T03:18:16;101240.06;;;20.02;77.11
54882;BME280;40775;51.448;4.742;2022-08-19T03:20:51;101237.38;;;20.04;77.04
54882;BME280;40775;51.448;4.742;2022-08-19T03:23:23;101244.53;;;19.99;76.88
54882;BME280;40775;51.448;4.742;2022-08-19T03:25:52;101243.69;;;19.95;77.14
54882;BME280;40775;51.448;4.742;2022-08-19T03:28:44;101253.47;;;19.93;76.84
54882;BME280;40775;51.448;4.742;2022-08-19T03:31:25;101252.63;;;19.90;77.33
54882;BME280;40775;51.448;4.742;2022-08-19T03:34:17;101250.91;;;19.87;77.05
54882;BME280;40775;51.448;4.742;2022-08-19T03:36:46;101252.66;;;19.88;77.35
54882;BME280;40775;51.448;4.742;2022-08-19T03:39:15;101237.56;;;19.87;77.34
54882;BME280;40775;51.448;4.742;2022-08-19T03:41:45;101252.69;;;19.87;77.25
54882;BME280;40775;51.448;4.742;2022-08-19T03:44:18;101252.69;;;19.85;77.24
54882;BME280;40775;51.448;4.742;2022-08-19T03:46:51;101254.50;;;19.83;77.36
54882;BME280;40775;51.448;4.742;2022-08-19T03:49:20;101254.50;;;19.83;77.35
54882;BME280;40775;51.448;4.742;2022-08-19T03:51:56;101249.16;;;19.83;77.12
54882;BME280;40775;51.448;4.742;2022-08-19T03:54:25;101249.19;;;19.82;77.33
54882;BME280;40775;51.448;4.742;2022-08-19T03:56:54;101264.28;;;19.81;77.44
54882;BME280;40775;51.448;4.742;2022-08-19T03:59:34;101248.31;;;19.81;77.55
54882;BME280;40775;51.448;4.742;2022-08-19T04:02:07;101246.53;;;19.80;77.63
54882;BME280;40775;51.448;4.742;2022-08-19T04:04:38;101249.25;;;19.77;77.25
54882;BME280;40775;51.448;4.742;2022-08-19T04:07:07;101246.63;;;19.72;77.40
54882;BME280;40775;51.448;4.742;2022-08-19T04:09:35;101252.84;;;19.73;77.66
54882;BME280;40775;51.448;4.742;2022-08-19T04:12:08;101249.31;;;19.69;77.47
54882;BME280;40775;51.448;4.742;2022-08-19T04:14:36;101253.75;;;19.69;77.45
54882;BME280;40775;51.448;4.742;2022-08-19T04:17:04;101236.88;;;19.70;77.74
54882;BME280;40775;51.448;4.742;2022-08-19T04:19:34;101248.38;;;19.72;77.80
54882;BME280;40775;51.448;4.742;2022-08-19T04:22:03;101259.94;;;19.71;77.68
54882;BME280;40775;51.448;4.742;2022-08-19T04:24:31;101263.56;;;19.65;77.59
54882;BME280;40775;51.448;4.742;2022-08-19T04:27:00;101264.50;;;19.60;77.37
54882;BME280;40775;51.448;4.742;2022-08-19T04:29:29;101268.00;;;19.65;77.72
54882;BME280;40775;51.448;4.742;2022-08-19T04:31:57;101263.56;;;19.64;77.97
54882;BME280;40775;51.448;4.742;2022-08-19T04:34:28;101258.28;;;19.61;78.00
54882;BME280;40775;51.448;4.742;2022-08-19T04:36:58;101265.38;;;19.62;77.99
54882;BME280;40775;51.448;4.742;2022-08-19T04:39:29;101266.31;;;19.58;77.99
54882;BME280;40775;51.448;4.742;2022-08-19T04:42:17;101266.31;;;19.56;77.74
54882;BME280;40775;51.448;4.742;2022-08-19T04:45:12;101276.03;;;19.60;78.00
54882;BME280;40775;51.448;4.742;2022-08-19T04:47:42;101268.06;;;19.59;78.05
54882;BME280;40775;51.448;4.742;2022-08-19T04:50:24;101272.53;;;19.57;78.13
54882;BME280;40775;51.448;4.742;2022-08-19T04:52:51;101261.88;;;19.57;78.16
54882;BME280;40775;51.448;4.742;2022-08-19T04:55:19;101270.78;;;19.51;77.95
54882;BME280;40775;51.448;4.742;2022-08-19T04:57:47;101263.69;;;19.50;78.05
54882;BME280;40775;51.448;4.742;2022-08-19T05:00:15;101270.81;;;19.50;77.98
54882;BME280;40775;51.448;4.742;2022-08-19T05:02:43;101268.13;;;19.50;78.28
54882;BME280;40775;51.448;4.742;2022-08-19T05:05:10;101267.22;;;19.52;78.19
54882;BME280;40775;51.448;4.742;2022-08-19T05:07:37;101268.13;;;19.51;78.30
54882;BME280;40775;51.448;4.742;2022-08-19T05:10:06;101274.38;;;19.49;78.33
54882;BME280;40775;51.448;4.742;2022-08-19T05:12:33;101269.88;;;19.52;78.50
54882;BME280;40775;51.448;4.742;2022-08-19T05:15:04;101271.66;;;19.52;78.41
54882;BME280;40775;51.448;4.742;2022-08-19T05:17:32;101277.00;;;19.53;78.60
54882;BME280;40775;51.448;4.742;2022-08-19T05:20:06;101276.09;;;19.53;78.45
54882;BME280;40775;51.448;4.742;2022-08-19T05:22:52;101274.34;;;19.52;78.37
54882;BME280;40775;51.448;4.742;2022-08-19T05:25:21;101278.75;;;19.53;78.42
54882;BME280;40775;51.448;4.742;2022-08-19T05:27:48;101280.53;;;19.57;78.55
54882;BME280;40775;51.448;4.742;2022-08-19T05:30:16;101280.53;;;19.57;78.80
54882;BME280;40775;51.448;4.742;2022-08-19T05:32:44;101297.69;;;21.40;76.94
54882;BME280;40775;51.448;4.742;2022-08-19T05:35:11;101278.63;;;22.51;72.30
54882;BME280;40775;51.448;4.742;2022-08-19T05:37:39;101283.94;;;23.28;69.00
54882;BME280;40775;51.448;4.742;2022-08-19T05:40:08;101283.44;;;23.82;66.78
54882;BME280;40775;51.448;4.742;2022-08-19T05:42:36;101279.69;;;24.20;65.09
54882;BME280;40775;51.448;4.742;2022-08-19T05:45:04;101278.03;;;24.47;64.13
54882;BME280;40775;51.448;4.742;2022-08-19T05:47:31;101278.25;;;24.69;63.18
54882;BME280;40775;51.448;4.742;2022-08-19T05:49:59;101284.91;;;24.85;62.34
54882;BME280;40775;51.448;4.742;2022-08-19T05:52:31;101286.25;;;25.00;61.74
54882;BME280;40775;51.448;4.742;2022-08-19T05:54:59;101274.22;;;25.12;61.05
54882;BME280;40775;51.448;4.742;2022-08-19T05:57:26;101281.88;;;25.24;60.63
54882;BME280;40775;51.448;4.742;2022-08-19T05:59:56;101284.25;;;25.33;60.22
54882;BME280;40775;51.448;4.742;2022-08-19T06:02:26;101281.28;;;25.41;59.77
54882;BME280;40775;51.448;4.742;2022-08-19T06:04:53;101280.13;;;25.49;59.31
54882;BME280;40775;51.448;4.742;2022-08-19T06:07:20;101279.91;;;25.55;59.14
54882;BME280;40775;51.448;4.742;2022-08-19T06:09:48;101281.38;;;25.64;58.96
54882;BME280;40775;51.448;4.742;2022-08-19T06:12:28;101273.94;;;25.72;58.50
54882;BME280;40775;51.448;4.742;2022-08-19T06:15:00;101267.69;;;25.72;58.23
54882;BME280;40775;51.448;4.742;2022-08-19T06:17:29;101271.00;;;25.80;58.03
54882;BME280;40775;51.448;4.742;2022-08-19T06:19:58;101263.75;;;25.82;57.89
54882;BME280;40775;51.448;4.742;2022-08-19T06:22:27;101265.41;;;25.86;57.79
54882;BME280;40775;51.448;4.742;2022-08-19T06:24:55;101260.72;;;25.91;57.71
54882;BME280;40775;51.448;4.742;2022-08-19T06:27:22;101266.03;;;25.93;57.83
54882;BME280;40775;51.448;4.742;2022-08-19T06:29:49;101270.44;;;25.95;57.37
54882;BME280;40775;51.448;4.742;2022-08-19T06:32:17;101268.63;;;25.96;57.27
54882;BME280;40775;51.448;4.742;2022-08-19T06:34:46;101277.44;;;25.99;57.17
54882;BME280;40775;51.448;4.742;2022-08-19T06:37:14;101268.50;;;25.99;57.16
54882;BME280;40775;51.448;4.742;2022-08-19T06:39:43;101270.19;;;26.03;57.02
54882;BME280;40775;51.448;4.742;2022-08-19T06:42:12;101274.56;;;26.05;56.97
54882;BME280;40775;51.448;4.742;2022-08-19T06:44:41;101278.06;;;26.07;56.82
54882;BME280;40775;51.448;4.742;2022-08-19T06:47:18;101280.75;;;26.07;56.62
54882;BME280;40775;51.448;4.742;2022-08-19T06:49:56;101277.13;;;26.08;56.73
54882;BME280;40775;51.448;4.742;2022-08-19T06:52:37;101281.53;;;26.11;56.57
54882;BME280;40775;51.448;4.742;2022-08-19T06:55:07;101284.16;;;26.12;56.49
54882;BME280;40775;51.448;4.742;2022-08-19T06:57:34;101285.91;;;26.13;56.58
54882;BME280;40775;51.448;4.742;2022-08-19T07:00:04;101274.16;;;26.16;56.39
54882;BME280;40775;51.448;4.742;2022-08-19T07:02:35;101281.41;;;26.14;56.37
54882;BME280;40775;51.448;4.742;2022-08-19T07:05:04;101280.41;;;26.16;56.31
54882;BME280;40775;51.448;4.742;2022-08-19T07:07:32;101285.72;;;26.18;56.21
54882;BME280;40775;51.448;4.742;2022-08-19T07:09:59;101294.69;;;26.18;56.17
54882;BME280;40775;51.448;4.742;2022-08-19T07:12:31;101293.69;;;26.21;56.23
54882;BME280;40775;51.448;4.742;2022-08-19T07:15:04;101288.25;;;26.23;56.10
54882;BME280;40775;51.448;4.742;2022-08-19T07:17:32;101295.44;;;26.22;56.05
54882;BME280;40775;51.448;4.742;2022-08-19T07:20:01;101285.56;;;26.23;56.15
54882;BME280;40775;51.448;4.742;2022-08-19T07:22:34;101298.06;;;26.24;56.12
54882;BME280;40775;51.448;4.742;2022-08-19T07:25:03;101296.31;;;26.23;56.26
54882;BME280;40775;51.448;4.742;2022-08-19T07:27:32;101306.22;;;26.22;56.00
54882;BME280;40775;51.448;4.742;2022-08-19T07:30:00;101301.72;;;26.23;56.10
54882;BME280;40775;51.448;4.742;2022-08-19T07:32:27;101305.22;;;26.25;56.08
54882;BME280;40775;51.448;4.742;2022-08-19T07:34:55;101300.72;;;26.25;56.00
54882;BME280;40775;51.448;4.742;2022-08-19T07:37:24;101301.59;;;26.26;56.15
54882;BME280;40775;51.448;4.742;2022-08-19T07:40:00;101303.41;;;26.25;55.97
54882;BME280;40775;51.448;4.742;2022-08-19T07:42:28;101310.47;;;26.28;55.81
54882;BME280;40775;51.448;4.742;2022-08-19T07:44:57;101316.72;;;26.30;55.90
54882;BME280;40775;51.448;4.742;2022-08-19T07:47:25;101310.47;;;26.28;55.91
54882;BME280;40775;51.448;4.742;2022-08-19T07:50:14;101313.19;;;26.28;55.83
54882;BME280;40775;51.448;4.742;2022-08-19T07:52:41;101305.16;;;26.26;55.95
54882;BME280;40775;51.448;4.742;2022-08-19T07:55:15;101315.78;;;26.31;56.06
54882;BME280;40775;51.448;4.742;2022-08-19T07:58:03;101309.47;;;26.32;55.85
54882;BME280;40775;51.448;4.742;2022-08-19T08:00:31;101312.22;;;26.30;55.71
54882;BME280;40775;51.448;4.742;2022-08-19T08:02:59;101311.28;;;26.31;55.64
54882;BME280;40775;51.448;4.742;2022-08-19T08:05:26;101315.72;;;26.32;55.75
54882;BME280;40775;51.448;4.742;2022-08-19T08:08:12;101316.59;;;26.33;55.71
54882;BME280;40775;51.448;4.742;2022-08-19T08:10:59;101314.84;;;26.32;55.79
54882;BME280;40775;51.448;4.742;2022-08-19T08:13:26;101317.53;;;26.32;55.76
54882;BME280;40775;51.448;4.742;2022-08-19T08:15:56;101321.16;;;26.31;55.93
54882;BME280;40775;51.448;4.742;2022-08-19T08:18:24;101326.47;;;26.34;55.85
54882;BME280;40775;51.448;4.742;2022-08-19T08:20:57;101330.78;;;26.38;55.82
54882;BME280;40775;51.448;4.742;2022-08-19T08:23:25;101320.03;;;26.38;55.54
54882;BME280;40775;51.448;4.742;2022-08-19T08:25:55;101334.19;;;26.43;55.28
54882;BME280;40775;51.448;4.742;2022-08-19T08:28:25;101336.00;;;26.42;55.78
54882;BME280;40775;51.448;4.742;2022-08-19T08:30:57;101332.44;;;26.42;55.97
54882;BME280;40775;51.448;4.742;2022-08-19T08:33:27;101343.19;;;26.42;55.77
54882;BME280;40775;51.448;4.742;2022-08-19T08:36:04;101347.66;;;26.43;56.62
54882;BME280;40775;51.448;4.742;2022-08-19T08:38:32;101353.03;;;26.43;56.80
54882;BME280;40775;51.448;4.742;2022-08-19T08:41:35;101344.13;;;26.41;55.91
54882;BME280;40775;51.448;4.742;2022-08-19T08:44:04;101351.22;;;26.43;55.87
54882;BME280;40775;51.448;4.742;2022-08-19T08:46:41;101347.66;;;26.43;55.57
54882;BME280;40775;51.448;4.742;2022-08-19T08:50:03;101359.28;;;26.43;55.79
54882;BME280;40775;51.448;4.742;2022-08-19T08:52:36;101352.09;;;26.44;57.21
54882;BME280;40775;51.448;4.742;2022-08-19T08:55:15;101355.56;;;26.47;57.54
54882;BME280;40775;51.448;4.742;2022-08-19T08:57:51;101353.91;;;26.43;56.37
54882;BME280;40775;51.448;4.742;2022-08-19T09:00:31;101353.97;;;26.42;55.60
54882;BME280;40775;51.448;4.742;2022-08-19T09:03:01;101357.31;;;26.48;56.33
54882;BME280;40775;51.448;4.742;2022-08-19T09:06:00;101354.69;;;26.47;56.42
54882;BME280;40775;51.448;4.742;2022-08-19T09:12:11;101349.28;;;26.47;55.93
54882;BME280;40775;51.448;4.742;2022-08-19T09:15:05;101350.03;;;26.51;57.13
54882;BME280;40775;51.448;4.742;2022-08-19T09:17:33;101352.75;;;26.51;59.57
54882;BME280;40775;51.448;4.742;2022-08-19T09:20:22;101356.59;;;26.43;58.02
54882;BME280;40775;51.448;4.742;2022-08-19T09:22:52;101361.06;;;26.44;56.77
54882;BME280;40775;51.448;4.742;2022-08-19T09:25:22;101356.25;;;26.53;59.79
54882;BME280;40775;51.448;4.742;2022-08-19T09:27:54;101360.81;;;26.51;58.75
54882;BME280;40775;51.448;4.742;2022-08-19T09:30:34;101360.19;;;26.44;57.10
54882;BME280;40775;51.448;4.742;2022-08-19T09:33:01;101357.47;;;26.44;56.59
54882;BME280;40775;51.448;4.742;2022-08-19T09:35:30;101365.56;;;26.44;56.22
54882;BME280;40775;51.448;4.742;2022-08-19T09:38:15;101372.81;;;26.42;55.76
54882;BME280;40775;51.448;4.742;2022-08-19T09:40:43;101365.69;;;26.41;55.58
54882;BME280;40775;51.448;4.742;2022-08-19T09:43:10;101366.44;;;26.44;55.81
54882;BME280;40775;51.448;4.742;2022-08-19T09:45:39;101361.06;;;26.44;55.49
54882;BME280;40775;51.448;4.742;2022-08-19T09:48:06;101366.50;;;26.43;55.51
54882;BME280;40775;51.448;4.742;2022-08-19T09:50:37;101375.41;;;26.45;55.61
54882;BME280;40775;51.448;4.742;2022-08-19T09:53:18;101374.56;;;26.43;55.40
54882;BME280;40775;51.448;4.742;2022-08-19T09:55:45;101367.56;;;26.39;55.68
54882;BME280;40775;51.448;4.742;2022-08-19T09:58:13;101371.06;;;26.41;55.65
54882;BME280;40775;51.448;4.742;2022-08-19T10:00:40;101367.44;;;26.42;55.70
54882;BME280;40775;51.448;4.742;2022-08-19T10:03:07;101360.28;;;26.41;55.60
54882;BME280;40775;51.448;4.742;2022-08-19T10:05:34;101378.22;;;26.42;55.73
54882;BME280;40775;51.448;4.742;2022-08-19T10:08:30;101365.63;;;26.42;55.58
54882;BME280;40775;51.448;4.742;2022-08-19T10:10:58;101378.22;;;26.42;55.76
54882;BME280;40775;51.448;4.742;2022-08-19T10:13:45;101358.25;;;26.47;55.63
54882;BME280;40775;51.448;4.742;2022-08-19T10:16:20;101357.38;;;26.47;55.54
54882;BME280;40775;51.448;4.742;2022-08-19T10:18:56;101361.94;;;26.45;55.58
54882;BME280;40775;51.448;4.742;2022-08-19T10:21:32;101354.78;;;26.44;55.97
54882;BME280;40775;51.448;4.742;2022-08-19T10:24:02;101356.53;;;26.45;55.70
54882;BME280;40775;51.448;4.742;2022-08-19T10:26:35;101357.31;;;26.48;55.53
54882;BME280;40775;51.448;4.742;2022-08-19T10:29:04;101340.16;;;26.51;55.57
54882;BME280;40775;51.448;4.742;2022-08-19T10:31:35;101339.16;;;26.54;55.76
54882;BME280;40775;51.448;4.742;2022-08-19T10:34:22;101334.94;;;26.46;55.89
54882;BME280;40775;51.448;4.742;2022-08-19T10:36:55;101333.06;;;26.48;56.02
54882;BME280;40775;51.448;4.742;2022-08-19T10:39:29;101330.50;;;26.45;56.24
54882;BME280;40775;51.448;4.742;2022-08-19T10:41:59;101339.34;;;26.49;56.10
54882;BME280;40775;51.448;4.742;2022-08-19T10:44:26;101332.19;;;26.48;56.20
54882;BME280;40775;51.448;4.742;2022-08-19T10:46:59;101343.78;;;26.50;56.00
54882;BME280;40775;51.448;4.742;2022-08-19T10:49:27;101343.78;;;26.50;56.27
54882;BME280;40775;51.448;4.742;2022-08-19T10:51:55;101341.16;;;26.48;56.10
54882;BME280;40775;51.448;4.742;2022-08-19T10:54:46;101344.72;;;26.49;56.47
54882;BME280;40775;51.448;4.742;2022-08-19T10:57:35;101342.09;;;26.47;56.21
54882;BME280;40775;51.448;4.742;2022-08-19T11:00:23;101333.81;;;26.52;56.54
54882;BME280;40775;51.448;4.742;2022-08-19T11:02:51;101338.34;;;26.52;56.15
54882;BME280;40775;51.448;4.742;2022-08-19T11:05:19;101332.19;;;26.48;56.37
54882;BME280;40775;51.448;4.742;2022-08-19T11:07:50;101337.28;;;26.56;57.13
54882;BME280;40775;51.448;4.742;2022-08-19T11:10:19;101336.06;;;26.64;58.10
54882;BME280;40775;51.448;4.742;2022-08-19T11:12:48;101348.78;;;26.61;56.92
54882;BME280;40775;51.448;4.742;2022-08-19T11:15:15;101341.69;;;26.58;56.83
54882;BME280;40775;51.448;4.742;2022-08-19T11:17:43;101348.91;;;26.58;56.64
54882;BME280;40775;51.448;4.742;2022-08-19T11:20:14;101348.03;;;26.57;56.42
54882;BME280;40775;51.448;4.742;2022-08-19T11:22:42;101351.09;;;26.70;57.99
54882;BME280;40775;51.448;4.742;2022-08-19T11:25:10;101347.59;;;26.68;57.51
54882;BME280;40775;51.448;4.742;2022-08-19T11:27:40;101338.88;;;26.85;61.52
54882;BME280;40775;51.448;4.742;2022-08-19T11:30:13;101341.34;;;26.67;58.51
54882;BME280;40775;51.448;4.742;2022-08-19T11:32:41;101352.22;;;26.64;57.67
54882;BME280;40775;51.448;4.742;2022-08-19T11:35:15;101344.22;;;26.63;57.51
54882;BME280;40775;51.448;4.742;2022-08-19T11:37:42;101347.72;;;26.65;57.53
54882;BME280;40775;51.448;4.742;2022-08-19T11:40:10;101349.59;;;26.63;57.17
54882;BME280;40775;51.448;4.742;2022-08-19T11:42:38;101352.22;;;26.64;56.73
54882;BME280;40775;51.448;4.742;2022-08-19T11:45:26;101354.56;;;26.73;57.57
54882;BME280;40775;51.448;4.742;2022-08-19T11:47:53;101358.94;;;26.76;57.64
54882;BME280;40775;51.448;4.742;2022-08-19T11:50:21;101344.53;;;26.77;58.12
54882;BME280;40775;51.448;4.742;2022-08-19T11:52:53;101346.72;;;26.67;57.02
54882;BME280;40775;51.448;4.742;2022-08-19T11:55:21;101348.34;;;26.71;58.01
54882;BME280;40775;51.448;4.742;2022-08-19T11:57:48;101346.22;;;26.79;59.43
54882;BME280;40775;51.448;4.742;2022-08-19T12:00:16;101352.94;;;26.69;57.74
54882;BME280;40775;51.448;4.742;2022-08-19T12:02:43;101352.22;;;26.64;57.12
54882;BME280;40775;51.448;4.742;2022-08-19T12:05:10;101352.28;;;26.63;57.02
54882;BME280;40775;51.448;4.742;2022-08-19T12:07:39;101354.94;;;26.64;56.75
54882;BME280;40775;51.448;4.742;2022-08-19T12:10:08;101343.22;;;26.65;56.36
54882;BME280;40775;51.448;4.742;2022-08-19T12:12:37;101352.16;;;26.66;56.67
54882;BME280;40775;51.448;4.742;2022-08-19T12:15:10;101348.75;;;26.84;59.06
54882;BME280;40775;51.448;4.742;2022-08-19T12:17:38;101355.31;;;26.77;57.55
54882;BME280;40775;51.448;4.742;2022-08-19T12:20:06;101354.19;;;26.83;58.67
54882;BME280;40775;51.448;4.742;2022-08-19T12:22:37;101347.25;;;27.00;62.32
54882;BME280;40775;51.448;4.742;2022-08-19T12:25:05;101328.91;;;26.87;59.99
54882;BME280;40775;51.448;4.742;2022-08-19T12:27:32;101332.75;;;26.79;58.17
54882;BME280;40775;51.448;4.742;2022-08-19T12:30:11;101332.13;;;26.73;57.35
54882;BME280;40775;51.448;4.742;2022-08-19T12:32:38;101333.13;;;26.70;57.37
54882;BME280;40775;51.448;4.742;2022-08-19T12:35:07;101331.41;;;26.91;60.27
54882;BME280;40775;51.448;4.742;2022-08-19T12:37:36;101332.06;;;26.74;57.31
54882;BME280;40775;51.448;4.742;2022-08-19T12:40:03;101320.34;;;26.75;57.05
54882;BME280;40775;51.448;4.742;2022-08-19T12:42:31;101335.56;;;26.76;56.69
54882;BME280;40775;51.448;4.742;2022-08-19T12:44:58;101323.75;;;26.80;57.61
54882;BME280;40775;51.448;4.742;2022-08-19T12:47:25;101323.47;;;26.88;58.87
54882;BME280;40775;51.448;4.742;2022-08-19T12:49:53;101326.28;;;26.85;58.46
54882;BME280;40775;51.448;4.742;2022-08-19T12:52:26;101323.88;;;26.77;56.98
54882;BME280;40775;51.448;4.742;2022-08-19T12:54:56;101321.28;;;26.74;56.80
54882;BME280;40775;51.448;4.742;2022-08-19T12:57:27;101325.06;;;26.70;56.52
54882;BME280;40775;51.448;4.742;2022-08-19T13:00:07;101307.31;;;27.10;63.00
54882;BME280;40775;51.448;4.742;2022-08-19T13:02:41;101308.16;;;26.89;58.31
54882;BME280;40775;51.448;4.742;2022-08-19T13:05:19;101309.16;;;26.86;57.76
54882;BME280;40775;51.448;4.742;2022-08-19T13:07:48;101305.00;;;26.77;57.10
54882;BME280;40775;51.448;4.742;2022-08-19T13:10:19;101298.63;;;26.80;56.70
54882;BME280;40775;51.448;4.742;2022-08-19T13:12:50;101311.34;;;26.76;56.87
54882;BME280;40775;51.448;4.742;2022-08-19T13:15:20;101308.28;;;26.86;57.36
54882;BME280;40775;51.448;4.742;2022-08-19T13:17:52;101299.44;;;26.82;56.65